Terminal Aerodrome Forecast
Issued by NWS

Home | Current Version | Previous Version | Text Only | Print | Product List | Glossary On
Versions: 1 2 3 4 5 6 7 8 9 10 11 12 13
000
FTUS43 KTOP 011700
TAFMHK
TAF
KMHK 011724Z 0118/0218 19018G32KT P6SM SCT120
     FM020500 20016G23KT P6SM VCTS BKN030CB
     FM020800 33010G18KT 4SM -TSRA OVC012CB
     FM021100 02010KT P6SM SCT080=

USA.gov is the U.S. government's official web portal to all federal, state and local government web resources and services.